Time;durP1;ratioP1;P1;durP2;ratioP2;P2;SDS_P1;SDS_P2;PMS_P1;PMS_P2;Temp;Humidity;BMP_temperature;BMP_pressure;BME280_temperature;BME280_humidity;BME280_pressure;Samples;Min_cycle;Max_cycle;Signal;HPM_P1;HPM_P2
2021/10/23 00:00:44;;;;;;;1.75;0.60;;;6.10;99.90;;;;;;4949572;29;20031;-78
2021/10/23 00:03:10;;;;;;;2.63;1.25;;;6.00;99.90;;;;;;4965606;28;20022;-79
2021/10/23 00:05:36;;;;;;;3.47;0.73;;;6.10;99.90;;;;;;4960699;29;20023;-80
2021/10/23 00:08:03;;;;;;;2.15;1.00;;;6.00;99.90;;;;;;4962952;28;20496;-76
2021/10/23 00:10:30;;;;;;;6.93;1.23;;;6.00;99.90;;;;;;4965881;28;20027;-79
2021/10/23 00:12:56;;;;;;;3.10;0.90;;;6.00;99.90;;;;;;4965927;28;20024;-79
2021/10/23 00:15:22;;;;;;;4.55;0.90;;;6.10;99.90;;;;;;4965729;28;20468;-79
2021/10/23 00:17:47;;;;;;;4.18;0.98;;;6.10;99.90;;;;;;4964768;29;20042;-75
2021/10/23 00:20:13;;;;;;;1.13;0.60;;;6.10;99.90;;;;;;4965901;28;20024;-76
2021/10/23 00:22:39;;;;;;;3.50;0.85;;;6.10;99.90;;;;;;4965311;28;20027;-77
2021/10/23 00:25:05;;;;;;;1.83;0.80;;;6.10;99.90;;;;;;4965788;28;20027;-77
2021/10/23 00:27:32;;;;;;;2.85;0.80;;;6.10;99.90;;;;;;4964454;29;20024;-78
2021/10/23 00:29:59;;;;;;;5.38;1.30;;;6.10;99.90;;;;;;4964173;28;20027;-78
2021/10/23 00:32:27;;;;;;;7.38;0.47;;;6.10;99.90;;;;;;4964543;28;20043;-78
2021/10/23 00:34:53;;;;;;;2.10;0.98;;;6.10;99.90;;;;;;4965590;28;20027;-79
2021/10/23 00:37:19;;;;;;;9.90;1.92;;;6.10;99.90;;;;;;4964202;28;20506;-78
2021/10/23 00:39:44;;;;;;;1.58;0.55;;;6.20;99.90;;;;;;4965756;28;20443;-78
2021/10/23 00:42:10;;;;;;;3.72;1.30;;;6.10;99.90;;;;;;4957076;28;20456;-77
2021/10/23 00:44:41;;;;;;;7.20;0.93;;;6.10;99.90;;;;;;4946538;29;20019;-76
2021/10/23 00:47:12;;;;;;;6.88;1.40;;;6.20;99.90;;;;;;4965163;29;20019;-79
2021/10/23 00:49:39;;;;;;;1.60;0.88;;;6.10;99.90;;;;;;4963868;28;20062;-78
2021/10/23 00:52:07;;;;;;;4.45;1.55;;;6.10;99.90;;;;;;4963991;28;20130;-79
2021/10/23 00:54:33;;;;;;;8.32;1.13;;;6.10;99.90;;;;;;4963807;28;20027;-81
2021/10/23 00:57:01;;;;;;;4.03;1.13;;;6.10;99.90;;;;;;4965269;28;20035;-78
2021/10/23 00:59:29;;;;;;;12.05;1.65;;;6.10;99.90;;;;;;4965239;28;20023;-78
2021/10/23 01:02:02;;;;;;;4.00;0.63;;;6.10;99.90;;;;;;4966266;28;20024;-74
2021/10/23 01:04:32;;;;;;;29.95;1.25;;;6.10;99.90;;;;;;4968229;29;20020;-78
2021/10/23 01:06:58;;;;;;;1.08;0.65;;;6.10;99.90;;;;;;4969192;28;20094;-78
2021/10/23 01:09:24;;;;;;;2.95;0.73;;;6.10;99.90;;;;;;4967589;28;20051;-75
2021/10/23 01:11:51;;;;;;;1.77;1.05;;;6.10;99.90;;;;;;4968474;28;20078;-74
2021/10/23 01:14:22;;;;;;;7.50;1.42;;;6.10;99.90;;;;;;4968822;28;20044;-76
2021/10/23 01:16:50;;;;;;;7.75;0.93;;;6.10;99.90;;;;;;4968065;28;20047;-76
2021/10/23 01:19:16;;;;;;;2.08;1.40;;;6.10;99.90;;;;;;4968717;28;20042;-76
2021/10/23 01:21:45;;;;;;;13.15;0.70;;;6.00;99.90;;;;;;4967158;28;20129;-77
2021/10/23 01:24:11;;;;;;;8.82;0.85;;;6.10;99.90;;;;;;4968491;28;20090;-75
2021/10/23 01:26:37;;;;;;;11.15;1.27;;;6.10;99.90;;;;;;4968028;28;20700;-77
2021/10/23 01:29:06;;;;;;;7.07;0.98;;;6.20;99.90;;;;;;4967183;28;20031;-75
2021/10/23 01:31:32;;;;;;;1.73;0.63;;;6.10;99.90;;;;;;4968382;28;20046;-77
2021/10/23 01:34:09;;;;;;;3.70;0.77;;;6.10;99.90;;;;;;4967076;29;20031;-77
2021/10/23 01:36:35;;;;;;;1.77;1.33;;;6.10;99.90;;;;;;4967113;28;20041;-81
2021/10/23 01:39:01;;;;;;;3.92;0.52;;;6.20;99.90;;;;;;4968581;28;20114;-80
2021/10/23 01:41:27;;;;;;;3.33;1.27;;;6.20;99.90;;;;;;4967079;28;20038;-78
2021/10/23 01:43:52;;;;;;;15.45;1.02;;;6.20;99.90;;;;;;4966979;28;20054;-75
2021/10/23 01:46:18;;;;;;;11.90;1.90;;;6.10;99.90;;;;;;4968398;28;20038;-79
2021/10/23 01:48:43;;;;;;;4.72;1.52;;;6.10;99.90;;;;;;4967129;28;20058;-78
2021/10/23 01:51:13;;;;;;;10.20;1.65;;;6.10;99.90;;;;;;4967772;28;20156;-76
2021/10/23 01:53:38;;;;;;;5.53;1.15;;;6.10;99.90;;;;;;4966252;28;20031;-76
2021/10/23 01:56:04;;;;;;;9.32;1.48;;;6.10;99.90;;;;;;4968114;28;20102;-78
2021/10/23 01:58:31;;;;;;;2.72;1.13;;;6.10;99.90;;;;;;4966183;28;20054;-76
2021/10/23 02:00:57;;;;;;;10.68;1.00;;;6.10;99.90;;;;;;4967692;28;20027;-77
2021/10/23 02:03:23;;;;;;;2.22;0.63;;;6.20;99.90;;;;;;4966586;28;20039;-81
2021/10/23 02:05:48;;;;;;;2.08;0.90;;;6.30;99.90;;;;;;4966568;28;20067;-78
2021/10/23 02:08:14;;;;;;;0.43;0.28;;;6.10;99.90;;;;;;4965729;28;20046;-77
2021/10/23 02:10:40;;;;;;;6.78;1.80;;;6.20;99.90;;;;;;4966012;28;20042;-77
2021/10/23 02:13:05;;;;;;;8.57;1.15;;;6.20;99.90;;;;;;4966344;28;20023;-77
2021/10/23 02:15:32;;;;;;;4.93;0.70;;;6.30;99.90;;;;;;4966416;28;20080;-77
2021/10/23 02:17:58;;;;;;;3.03;1.00;;;6.30;99.90;;;;;;4968308;28;20027;-78
2021/10/23 02:20:25;;;;;;;7.22;0.68;;;6.30;99.90;;;;;;4966329;28;20526;-76
2021/10/23 02:22:51;;;;;;;2.75;0.88;;;6.30;99.90;;;;;;4965977;28;20031;-81
2021/10/23 02:25:16;;;;;;;8.23;1.35;;;6.20;99.90;;;;;;4966099;28;20059;-76
2021/10/23 02:27:43;;;;;;;26.40;1.35;;;6.20;99.90;;;;;;4966396;28;20023;-76
2021/10/23 02:30:09;;;;;;;6.20;1.15;;;6.30;99.90;;;;;;4965913;28;20024;-78
2021/10/23 02:32:35;;;;;;;4.68;0.90;;;6.20;99.90;;;;;;4967272;28;20035;-79
2021/10/23 02:35:00;;;;;;;1.05;0.63;;;6.10;99.90;;;;;;4965821;28;20057;-78
2021/10/23 02:37:29;;;;;;;3.45;1.10;;;6.10;99.90;;;;;;4965898;28;20059;-79
2021/10/23 02:39:55;;;;;;;5.05;0.60;;;6.10;99.90;;;;;;4967493;28;20130;-81
2021/10/23 02:42:20;;;;;;;7.70;1.35;;;6.10;99.90;;;;;;4965914;28;20720;-79
2021/10/23 02:44:46;;;;;;;6.32;1.13;;;6.10;99.90;;;;;;4965565;28;20027;-77
2021/10/23 02:47:11;;;;;;;7.40;0.93;;;6.10;99.90;;;;;;4966949;28;20074;-78
2021/10/23 02:49:40;;;;;;;2.10;0.85;;;6.10;99.90;;;;;;4965601;28;20095;-77
2021/10/23 02:52:07;;;;;;;0.85;0.55;;;6.10;99.90;;;;;;4967612;28;20039;-79
2021/10/23 02:54:33;;;;;;;3.45;1.13;;;6.00;99.90;;;;;;4966541;28;20027;-76
2021/10/23 02:56:59;;;;;;;9.88;1.25;;;6.00;99.90;;;;;;4967190;28;20415;-80
2021/10/23 02:59:28;;;;;;;1.85;1.10;;;6.00;99.90;;;;;;4965857;28;20031;-75
2021/10/23 03:01:54;;;;;;;3.90;0.77;;;6.00;99.90;;;;;;4966809;28;20035;-75
2021/10/23 03:04:20;;;;;;;4.43;1.52;;;6.10;99.90;;;;;;4966778;28;20039;-74
2021/10/23 03:06:45;;;;;;;3.97;0.93;;;6.10;99.90;;;;;;4965330;28;20023;-77
2021/10/23 03:09:16;;;;;;;5.88;1.10;;;6.10;99.90;;;;;;4965141;28;20071;-75
2021/10/23 03:11:42;;;;;;;4.75;0.85;;;6.10;99.90;;;;;;4958946;28;20038;-74
2021/10/23 03:14:09;;;;;;;3.65;0.93;;;6.00;99.90;;;;;;4947949;29;20028;-76
2021/10/23 03:16:35;;;;;;;4.78;1.52;;;6.00;99.90;;;;;;4965793;28;20039;-75
2021/10/23 03:19:01;;;;;;;3.78;1.08;;;6.00;99.90;;;;;;4965472;28;20054;-76
2021/10/23 03:21:28;;;;;;;2.83;1.13;;;6.00;99.90;;;;;;4965734;28;20024;-75
2021/10/23 03:23:53;;;;;;;8.27;0.82;;;5.90;99.90;;;;;;4965830;28;20101;-75
2021/10/23 03:26:19;;;;;;;6.63;1.05;;;5.90;99.90;;;;;;4954149;28;20047;-75
2021/10/23 03:28:45;;;;;;;4.50;0.93;;;5.90;99.90;;;;;;4947677;29;20027;-75
2021/10/23 03:31:10;;;;;;;11.10;1.98;;;6.00;99.90;;;;;;4947178;29;20054;-79
2021/10/23 03:33:38;;;;;;;3.60;1.20;;;5.80;99.90;;;;;;4947620;29;20039;-76
2021/10/23 03:36:05;;;;;;;7.15;0.57;;;5.80;99.90;;;;;;4946204;29;20036;-73
2021/10/23 03:38:32;;;;;;;0.95;0.50;;;5.70;99.90;;;;;;4945681;29;20039;-75
2021/10/23 03:41:00;;;;;;;8.18;1.73;;;5.70;99.90;;;;;;4947316;29;20031;-78
2021/10/23 03:43:26;;;;;;;4.22;1.38;;;5.70;99.90;;;;;;4946226;29;20063;-77
2021/10/23 03:45:54;;;;;;;3.85;0.63;;;5.80;99.90;;;;;;4946679;29;20020;-76
2021/10/23 03:48:20;;;;;;;10.57;1.52;;;5.60;99.90;;;;;;4946836;29;20038;-76
2021/10/23 03:50:46;;;;;;;9.65;1.95;;;5.60;99.90;;;;;;4946890;29;20044;-74
2021/10/23 03:53:14;;;;;;;2.85;0.60;;;5.60;99.90;;;;;;4946692;29;20499;-77
2021/10/23 03:55:40;;;;;;;9.88;0.65;;;5.60;99.90;;;;;;4945514;29;20095;-75
2021/10/23 03:58:05;;;;;;;2.13;0.93;;;5.70;99.90;;;;;;4946038;29;20031;-78
2021/10/23 04:00:31;;;;;;;1.40;0.57;;;5.60;99.90;;;;;;4947403;29;20035;-77
2021/10/23 04:02:58;;;;;;;1.63;0.60;;;5.70;99.90;;;;;;4946135;29;20047;-77
2021/10/23 04:05:23;;;;;;;7.60;1.17;;;5.80;99.90;;;;;;4945509;29;20028;-77
2021/10/23 04:07:49;;;;;;;6.53;1.45;;;5.80;99.90;;;;;;4946744;29;20035;-78
2021/10/23 04:10:15;;;;;;;1.27;0.60;;;5.80;99.90;;;;;;4945590;29;20119;-77
2021/10/23 04:12:41;;;;;;;5.63;1.48;;;5.80;99.90;;;;;;4944895;29;20047;-77
2021/10/23 04:15:07;;;;;;;3.97;1.17;;;5.70;99.90;;;;;;4946878;29;20028;-77
2021/10/23 04:17:33;;;;;;;2.38;0.82;;;5.80;99.90;;;;;;4945580;29;20032;-75
2021/10/23 04:19:59;;;;;;;10.10;1.20;;;5.70;99.90;;;;;;4946464;29;20067;-77
2021/10/23 04:22:24;;;;;;;10.50;1.15;;;5.70;99.90;;;;;;4945908;29;20047;-78
2021/10/23 04:24:53;;;;;;;0.95;0.93;;;5.70;99.90;;;;;;4945640;29;20511;-76
2021/10/23 04:27:19;;;;;;;1.65;0.93;;;5.80;99.90;;;;;;4946254;29;20034;-76
2021/10/23 04:29:46;;;;;;;3.88;0.52;;;5.60;99.90;;;;;;4945350;29;20095;-78
2021/10/23 04:32:11;;;;;;;3.70;1.27;;;5.70;99.90;;;;;;4946443;29;20091;-77
2021/10/23 04:34:37;;;;;;;4.93;0.35;;;5.70;99.90;;;;;;4944967;29;20027;-76
2021/10/23 04:37:04;;;;;;;5.22;1.08;;;5.70;99.90;;;;;;4957901;29;20034;-77
2021/10/23 04:39:31;;;;;;;4.50;0.85;;;5.70;99.90;;;;;;4963379;28;20028;-76
2021/10/23 04:41:56;;;;;;;18.13;1.48;;;5.60;99.90;;;;;;4948913;29;20028;-77
2021/10/23 04:44:22;;;;;;;10.95;1.90;;;5.60;99.90;;;;;;4949142;29;20030;-79
2021/10/23 04:46:48;;;;;;;3.63;1.15;;;5.70;99.90;;;;;;4948754;29;20428;-78
2021/10/23 04:49:16;;;;;;;1.50;0.95;;;5.60;99.90;;;;;;4950015;29;20039;-78
2021/10/23 04:51:42;;;;;;;4.07;1.63;;;5.60;99.90;;;;;;4948748;29;20062;-77
2021/10/23 04:54:08;;;;;;;5.28;1.27;;;5.60;99.90;;;;;;4948578;29;20059;-76
2021/10/23 04:56:37;;;;;;;2.53;0.63;;;5.60;99.90;;;;;;4950013;29;20063;-77
2021/10/23 04:59:07;;;;;;;3.15;0.55;;;5.60;99.90;;;;;;4950239;29;20027;-77
2021/10/23 05:01:33;;;;;;;5.28;0.95;;;5.60;99.90;;;;;;4948400;29;20055;-79
2021/10/23 05:04:00;;;;;;;1.40;0.60;;;5.60;99.90;;;;;;4948687;29;20381;-78
2021/10/23 05:06:26;;;;;;;2.25;0.77;;;5.60;99.90;;;;;;4949782;29;20500;-77
2021/10/23 05:08:51;;;;;;;9.55;1.20;;;5.60;99.90;;;;;;4949925;29;20070;-77
2021/10/23 05:11:17;;;;;;;3.53;1.55;;;5.60;99.90;;;;;;4966013;28;20039;-76
2021/10/23 05:13:42;;;;;;;13.25;2.03;;;5.70;99.90;;;;;;4964868;29;20038;-79
2021/10/23 05:16:08;;;;;;;7.63;2.03;;;5.70;99.90;;;;;;4967191;28;20035;-78
2021/10/23 05:18:34;;;;;;;4.28;1.00;;;5.70;99.90;;;;;;4969038;28;20077;-79
2021/10/23 05:21:01;;;;;;;3.47;0.82;;;5.70;99.90;;;;;;4967816;28;20023;-77
2021/10/23 05:23:26;;;;;;;1.48;0.60;;;5.70;99.90;;;;;;4968765;28;20030;-77
2021/10/23 05:25:52;;;;;;;2.03;1.08;;;5.60;99.90;;;;;;4967238;28;20035;-77
2021/10/23 05:28:18;;;;;;;11.55;0.88;;;5.70;99.90;;;;;;4967554;28;20062;-78
2021/10/23 05:30:43;;;;;;;7.22;0.70;;;5.80;99.90;;;;;;4968446;28;20143;-80
2021/10/23 05:33:09;;;;;;;1.67;1.10;;;5.70;99.90;;;;;;4967795;28;20035;-78
2021/10/23 05:35:35;;;;;;;2.78;0.88;;;5.80;99.90;;;;;;4967516;28;20024;-79
2021/10/23 05:38:03;;;;;;;6.72;1.65;;;5.70;99.90;;;;;;4963025;28;20035;-81
2021/10/23 05:40:31;;;;;;;9.35;1.13;;;5.70;99.90;;;;;;4967008;29;20035;-77
2021/10/23 05:42:57;;;;;;;5.65;1.40;;;5.70;99.90;;;;;;4960536;28;20032;-77
2021/10/23 05:45:24;;;;;;;1.30;0.68;;;5.70;99.90;;;;;;4947195;29;20027;-77
2021/10/23 05:47:49;;;;;;;2.15;1.17;;;5.70;99.90;;;;;;4960392;28;20184;-78
2021/10/23 05:50:15;;;;;;;6.78;1.35;;;5.70;99.90;;;;;;4966218;28;20023;-77
2021/10/23 05:52:41;;;;;;;0.40;0.40;;;5.60;99.90;;;;;;4962758;28;20049;-77
2021/10/23 05:55:08;;;;;;;7.55;1.50;;;5.70;99.90;;;;;;4956611;29;20050;-77
2021/10/23 05:57:34;;;;;;;4.00;1.13;;;5.60;99.90;;;;;;4965582;29;20035;-76
2021/10/23 06:00:06;;;;;;;4.60;0.52;;;5.60;99.90;;;;;;4960057;29;20032;-77
2021/10/23 06:02:32;;;;;;;2.67;0.55;;;5.60;99.90;;;;;;4957361;29;20039;-76
2021/10/23 06:05:01;;;;;;;13.40;0.95;;;5.60;99.90;;;;;;4955991;29;20394;-77
2021/10/23 06:07:31;;;;;;;6.85;2.20;;;5.60;99.90;;;;;;4953385;29;20104;-77
2021/10/23 06:09:59;;;;;;;2.13;0.60;;;5.60;99.90;;;;;;4956307;29;20040;-78
2021/10/23 06:12:27;;;;;;;1.45;0.63;;;5.60;99.90;;;;;;4947521;28;20063;-77
2021/10/23 06:14:53;;;;;;;3.15;0.60;;;5.70;99.90;;;;;;4962107;29;20038;-79
2021/10/23 06:17:19;;;;;;;4.10;0.57;;;5.60;99.90;;;;;;4967437;28;20023;-78
2021/10/23 06:19:45;;;;;;;1.75;0.80;;;5.60;99.90;;;;;;4966230;28;20393;-76
2021/10/23 06:22:10;;;;;;;7.28;1.27;;;5.60;99.90;;;;;;4965553;28;20040;-77
2021/10/23 06:24:37;;;;;;;3.58;0.47;;;5.60;99.90;;;;;;4961696;29;20043;-78
2021/10/23 06:27:04;;;;;;;1.10;0.55;;;5.60;99.90;;;;;;4947130;29;20119;-77
2021/10/23 06:29:32;;;;;;;3.28;1.23;;;5.60;99.90;;;;;;4947331;29;20032;-78
2021/10/23 06:31:59;;;;;;;1.25;0.57;;;5.60;99.90;;;;;;4959141;29;20035;-76
2021/10/23 06:34:24;;;;;;;1.58;0.73;;;5.60;99.90;;;;;;4958290;28;20134;-77
2021/10/23 06:36:50;;;;;;;1.10;0.68;;;5.60;99.90;;;;;;4966671;28;20496;-77
2021/10/23 06:39:16;;;;;;;2.38;0.93;;;5.60;99.90;;;;;;4962367;28;20051;-76
2021/10/23 06:41:42;;;;;;;1.00;0.52;;;5.60;99.90;;;;;;4960136;28;20085;-76
2021/10/23 06:44:08;;;;;;;8.77;1.17;;;5.70;99.90;;;;;;4965787;28;20070;-77
2021/10/23 06:46:35;;;;;;;2.33;0.93;;;5.70;99.90;;;;;;4965984;28;20050;-79
2021/10/23 06:49:04;;;;;;;8.55;1.08;;;5.70;99.90;;;;;;4966541;28;20095;-78
2021/10/23 06:51:30;;;;;;;3.60;1.50;;;5.90;99.90;;;;;;4965943;28;20039;-79
2021/10/23 06:53:57;;;;;;;7.88;1.25;;;5.80;99.90;;;;;;4966793;28;20066;-79
2021/10/23 06:56:27;;;;;;;2.38;0.45;;;5.90;99.90;;;;;;4964261;28;20098;-79
2021/10/23 06:58:53;;;;;;;0.68;0.30;;;5.80;99.90;;;;;;4949871;28;20030;-77
2021/10/23 07:01:19;;;;;;;2.83;0.40;;;5.90;99.90;;;;;;4946833;29;20063;-79
2021/10/23 07:03:46;;;;;;;1.73;0.93;;;6.10;99.90;;;;;;4946566;29;20035;-77
2021/10/23 07:06:12;;;;;;;2.65;0.65;;;6.10;99.90;;;;;;4958228;29;20042;-77
2021/10/23 07:08:38;;;;;;;9.48;1.50;;;6.20;99.90;;;;;;4950979;28;20048;-78
2021/10/23 07:11:04;;;;;;;0.73;0.55;;;6.30;99.90;;;;;;4964707;28;20043;-78
2021/10/23 07:13:31;;;;;;;1.67;1.00;;;6.30;99.90;;;;;;4965779;28;20028;-78
2021/10/23 07:15:57;;;;;;;6.65;0.90;;;6.40;99.90;;;;;;4948705;28;20083;-78
2021/10/23 07:18:23;;;;;;;8.55;1.63;;;6.30;99.90;;;;;;4945962;29;20046;-79
2021/10/23 07:20:48;;;;;;;10.48;0.75;;;6.30;99.90;;;;;;4947557;29;20036;-78
2021/10/23 07:23:14;;;;;;;10.38;1.60;;;6.30;99.90;;;;;;4946866;29;20047;-77
2021/10/23 07:25:41;;;;;;;1.75;1.15;;;6.30;99.90;;;;;;4950631;29;20031;-77
2021/10/23 07:28:08;;;;;;;3.42;1.13;;;6.30;99.90;;;;;;4959546;29;20026;-78
2021/10/23 07:30:33;;;;;;;1.45;0.88;;;6.30;99.90;;;;;;4962479;28;20027;-78
2021/10/23 07:33:00;;;;;;;1.10;0.75;;;6.30;99.90;;;;;;4947359;29;20042;-79
2021/10/23 07:35:26;;;;;;;2.78;0.95;;;6.30;99.90;;;;;;4950885;29;20094;-76
2021/10/23 07:37:52;;;;;;;5.65;0.43;;;6.50;99.90;;;;;;4953927;29;20024;-78
2021/10/23 07:40:17;;;;;;;11.27;1.08;;;6.30;99.90;;;;;;4947212;29;20031;-77
2021/10/23 07:42:44;;;;;;;10.25;1.75;;;6.40;99.90;;;;;;4958021;28;20027;-78
2021/10/23 07:45:11;;;;;;;1.92;0.90;;;6.40;99.90;;;;;;4964269;28;20146;-78
2021/10/23 07:47:39;;;;;;;2.13;1.05;;;6.50;99.90;;;;;;4965770;28;20038;-78
2021/10/23 07:50:08;;;;;;;4.90;1.33;;;6.50;99.90;;;;;;4964562;28;20036;-78
2021/10/23 07:52:35;;;;;;;7.97;1.17;;;6.70;99.90;;;;;;4966479;28;20176;-77
2021/10/23 07:55:03;;;;;;;1.75;0.65;;;6.90;99.90;;;;;;4960366;28;20042;-77
2021/10/23 07:57:29;;;;;;;2.13;1.10;;;7.10;99.90;;;;;;4961984;28;20024;-77
2021/10/23 07:59:55;;;;;;;1.08;0.60;;;7.40;99.90;;;;;;4971957;28;20138;-77
2021/10/23 08:02:20;;;;;;;4.25;1.20;;;7.60;99.90;;;;;;4975668;28;20064;-76
2021/10/23 08:04:46;;;;;;;2.78;0.50;;;7.90;99.90;;;;;;4961277;28;20028;-78
2021/10/23 08:07:11;;;;;;;3.10;0.57;;;8.20;99.90;;;;;;4959684;28;20408;-78
2021/10/23 08:09:38;;;;;;;7.72;0.77;;;8.30;99.90;;;;;;4965968;28;20066;-81
2021/10/23 08:12:05;;;;;;;3.35;0.82;;;8.40;99.90;;;;;;4967106;28;20062;-78
2021/10/23 08:14:34;;;;;;;2.17;0.60;;;8.50;99.90;;;;;;4969974;28;20027;-79
2021/10/23 08:17:05;;;;;;;7.15;1.05;;;8.60;99.90;;;;;;4971274;28;20031;-78
2021/10/23 08:19:35;;;;;;;5.13;0.73;;;8.70;99.90;;;;;;4969600;28;20137;-77
2021/10/23 08:22:01;;;;;;;2.75;1.02;;;8.70;99.90;;;;;;4970753;28;20054;-79
2021/10/23 08:24:27;;;;;;;6.95;1.63;;;8.80;99.90;;;;;;4967250;28;20035;-76
2021/10/23 08:26:53;;;;;;;5.60;1.27;;;8.90;99.90;;;;;;4966403;28;20024;-76
2021/10/23 08:29:18;;;;;;;1.15;0.70;;;8.80;99.90;;;;;;4962486;29;20054;-77
2021/10/23 08:31:45;;;;;;;2.47;0.95;;;8.80;99.90;;;;;;4967958;28;20135;-78
2021/10/23 08:34:18;;;;;;;3.47;0.95;;;8.60;99.90;;;;;;4962189;28;20083;-77
2021/10/23 08:36:44;;;;;;;4.22;0.85;;;8.50;99.90;;;;;;4950399;29;20028;-78
2021/10/23 08:39:10;;;;;;;0.50;0.30;;;8.50;99.90;;;;;;4949717;29;20034;-75
2021/10/23 08:41:37;;;;;;;1.35;0.60;;;8.50;99.90;;;;;;4954547;29;20035;-77
2021/10/23 08:44:06;;;;;;;1.35;0.60;;;8.50;99.90;;;;;;4967895;28;20369;-77
2021/10/23 08:46:37;;;;;;;6.70;0.80;;;8.50;99.90;;;;;;4969205;28;20027;-75
2021/10/23 08:49:04;;;;;;;2.15;0.85;;;8.50;99.90;;;;;;4969661;28;20091;-74
2021/10/23 08:51:31;;;;;;;15.30;1.45;;;8.50;99.90;;;;;;4967859;28;20043;-76
2021/10/23 08:53:57;;;;;;;9.82;1.70;;;8.50;99.90;;;;;;4964103;28;20094;-73
2021/10/23 08:56:23;;;;;;;8.98;1.00;;;8.50;99.90;;;;;;4963491;29;20023;-75
2021/10/23 08:58:49;;;;;;;6.35;0.95;;;8.50;99.90;;;;;;4959854;28;20109;-74
2021/10/23 09:01:15;;;;;;;3.72;1.00;;;8.50;99.90;;;;;;4961414;28;20035;-77
2021/10/23 09:03:42;;;;;;;10.55;0.88;;;8.50;99.90;;;;;;4967650;28;20042;-73
2021/10/23 09:06:14;;;;;;;5.40;2.13;;;8.50;99.90;;;;;;4968488;28;20027;-75
2021/10/23 09:09:03;;;;;;;1.55;0.93;;;8.50;99.90;;;;;;4959401;28;20126;-74
2021/10/23 09:11:43;;;;;;;3.72;0.80;;;8.60;99.90;;;;;;4967675;28;20037;-79
2021/10/23 09:14:31;;;;;;;6.95;1.13;;;8.60;99.90;;;;;;4950052;29;20031;-77
2021/10/23 09:17:09;;;;;;;8.40;1.95;;;8.70;99.90;;;;;;4966279;29;20027;-76
2021/10/23 09:19:47;;;;;;;3.58;1.42;;;8.70;99.90;;;;;;4966614;28;20071;-75
2021/10/23 09:22:36;;;;;;;2.80;1.20;;;8.80;99.90;;;;;;4963304;28;20032;-74
2021/10/23 09:25:17;;;;;;;2.92;1.00;;;8.90;99.90;;;;;;4948338;29;20448;-73
2021/10/23 09:28:11;;;;;;;2.30;0.88;;;8.90;99.90;;;;;;4952414;29;20031;-74
2021/10/23 09:30:49;;;;;;;6.03;0.65;;;9.10;99.90;;;;;;4958425;29;20024;-74
2021/10/23 09:33:17;;;;;;;4.93;1.42;;;9.20;99.90;;;;;;4966115;28;20059;-77
2021/10/23 09:35:51;;;;;;;4.15;1.20;;;9.20;99.90;;;;;;4957329;28;20032;-76
2021/10/23 09:38:22;;;;;;;4.80;1.42;;;9.30;99.90;;;;;;4951419;28;20042;-76
2021/10/23 09:40:51;;;;;;;0.43;0.25;;;9.30;99.90;;;;;;4966351;28;20032;-77
2021/10/23 09:43:21;;;;;;;11.32;1.67;;;9.30;99.90;;;;;;4966560;28;20054;-74
2021/10/23 09:46:00;;;;;;;3.17;1.35;;;9.40;99.90;;;;;;4968440;28;20083;-73
2021/10/23 09:48:56;;;;;;;2.03;0.90;;;9.50;99.90;;;;;;4966840;28;20031;-75
2021/10/23 09:51:29;;;;;;;7.93;1.20;;;9.60;99.90;;;;;;4958246;28;20058;-75
2021/10/23 09:53:58;;;;;;;3.58;1.33;;;9.70;99.90;;;;;;4968360;28;20031;-74
2021/10/23 09:56:34;;;;;;;3.05;1.08;;;10.00;99.90;;;;;;4966851;28;20042;-76
2021/10/23 09:59:03;;;;;;;5.25;1.35;;;10.30;99.90;;;;;;4959780;29;20046;-76
2021/10/23 10:01:31;;;;;;;6.40;1.02;;;10.50;99.90;;;;;;4959732;29;20024;-79
2021/10/23 10:04:08;;;;;;;4.03;0.35;;;10.60;99.90;;;;;;4966621;28;20034;-77
2021/10/23 10:06:40;;;;;;;7.10;1.00;;;10.70;99.90;;;;;;4966559;29;20130;-77
2021/10/23 10:09:06;;;;;;;4.07;0.70;;;10.70;99.90;;;;;;4965993;29;20047;-76
2021/10/23 10:11:35;;;;;;;5.22;0.80;;;10.80;99.90;;;;;;4968038;28;20059;-78
2021/10/23 10:14:07;;;;;;;2.50;1.27;;;10.90;99.90;;;;;;4968048;28;20035;-74
2021/10/23 10:16:35;;;;;;;1.77;0.50;;;10.90;99.90;;;;;;4966151;29;20184;-74
2021/10/23 10:19:02;;;;;;;3.65;1.10;;;11.00;99.90;;;;;;4966103;28;20035;-75
2021/10/23 10:21:38;;;;;;;10.18;1.17;;;11.00;99.90;;;;;;4963645;28;20039;-77
2021/10/23 10:24:18;;;;;;;12.75;1.13;;;11.10;99.90;;;;;;4964085;28;20030;-77
2021/10/23 10:27:16;;;;;;;3.08;1.27;;;11.10;99.90;;;;;;4966964;28;20046;-73
2021/10/23 10:29:55;;;;;;;0.88;0.40;;;11.20;99.90;;;;;;4957892;29;20030;-74
2021/10/23 10:32:26;;;;;;;6.90;0.77;;;11.20;99.90;;;;;;4961404;29;20073;-76
2021/10/23 10:35:58;;;;;;;2.05;0.60;;;11.20;99.90;;;;;;4954691;28;20031;-73
2021/10/23 10:44:11;;;;;;;3.92;0.77;;;11.30;99.90;;;;;;4937994;29;19918;-78
2021/10/23 10:47:01;;;;;;;3.67;0.68;;;11.40;99.90;;;;;;4966619;28;20047;-76
2021/10/23 10:49:41;;;;;;;4.20;0.70;;;11.50;99.90;;;;;;4965809;29;20093;-74
2021/10/23 10:52:38;;;;;;;2.40;0.50;;;11.60;99.90;;;;;;4969875;28;20038;-75
2021/10/23 10:55:17;;;;;;;2.95;0.95;;;11.70;99.90;;;;;;4985354;28;20098;-74
2021/10/23 10:58:05;;;;;;;12.43;1.02;;;11.70;99.90;;;;;;4986274;28;20042;-76
2021/10/23 11:00:46;;;;;;;4.22;0.73;;;11.60;99.90;;;;;;4986711;28;20038;-78
2021/10/23 11:03:40;;;;;;;1.73;0.75;;;11.60;99.90;;;;;;4986185;28;20062;-75
2021/10/23 11:06:28;;;;;;;2.40;0.60;;;11.70;99.90;;;;;;4984649;28;20027;-73
2021/10/23 11:09:20;;;;;;;6.55;0.30;;;12.00;99.90;;;;;;4972535;28;20051;-74
2021/10/23 11:11:51;;;;;;;1.17;0.60;;;12.20;99.90;;;;;;4962609;29;20031;-75
2021/10/23 11:14:21;;;;;;;3.15;1.20;;;12.40;99.90;;;;;;4964762;29;20035;-73
2021/10/23 11:16:48;;;;;;;2.40;0.90;;;12.50;99.90;;;;;;4966774;28;20050;-75
2021/10/23 11:19:43;;;;;;;3.92;0.93;;;12.40;99.90;;;;;;4964861;28;20042;-77
2021/10/23 11:22:15;;;;;;;2.35;0.98;;;12.40;99.90;;;;;;4965764;28;20023;-76
2021/10/23 11:25:05;;;;;;;2.65;0.63;;;12.40;99.90;;;;;;4965070;29;20511;-74
2021/10/23 11:27:38;;;;;;;0.85;0.60;;;12.30;99.90;;;;;;4966378;28;20027;-77
2021/10/23 11:30:10;;;;;;;5.40;1.07;;;12.20;99.90;;;;;;4965293;29;20112;-75
2021/10/23 11:32:39;;;;;;;5.85;0.52;;;12.20;99.90;;;;;;4966261;28;20322;-74
2021/10/23 11:35:06;;;;;;;8.07;3.17;;;12.30;99.90;;;;;;4965908;28;20023;-75
2021/10/23 11:37:32;;;;;;;3.33;1.15;;;12.50;99.90;;;;;;4966422;28;20035;-73
2021/10/23 11:40:01;;;;;;;2.83;0.82;;;12.60;99.90;;;;;;4966058;28;20558;-76
2021/10/23 11:42:31;;;;;;;2.83;0.50;;;12.70;99.90;;;;;;4966010;28;20046;-74
2021/10/23 11:45:00;;;;;;;8.77;1.10;;;13.20;99.90;;;;;;4966074;28;20503;-75
2021/10/23 11:47:29;;;;;;;3.38;0.57;;;13.60;99.90;;;;;;4966146;28;20027;-74
2021/10/23 11:50:00;;;;;;;1.63;0.55;;;13.90;99.90;;;;;;4966191;28;20031;-76
2021/10/23 11:52:31;;;;;;;4.45;1.00;;;14.10;99.90;;;;;;4964851;28;20115;-75
2021/10/23 11:55:00;;;;;;;3.83;0.70;;;14.20;99.90;;;;;;4966070;28;20119;-75
2021/10/23 11:57:42;;;;;;;2.53;0.28;;;14.30;99.90;;;;;;4965821;28;20031;-75
2021/10/23 12:00:42;;;;;;;4.22;0.82;;;14.30;99.90;;;;;;4966221;28;20090;-79
2021/10/23 12:03:10;;;;;;;3.60;0.70;;;14.30;99.90;;;;;;4964569;28;20122;-74
2021/10/23 12:05:43;;;;;;;2.17;0.65;;;14.20;99.90;;;;;;4966316;28;20019;-77
2021/10/23 12:08:31;;;;;;;0.77;0.40;;;14.10;99.90;;;;;;4963768;29;20373;-75
2021/10/23 12:10:57;;;;;;;5.20;0.95;;;13.90;99.90;;;;;;4964918;28;20054;-75
2021/10/23 12:13:22;;;;;;;3.35;0.40;;;13.80;99.90;;;;;;4965304;28;20027;-76
2021/10/23 12:16:02;;;;;;;0.50;0.20;;;13.60;99.90;;;;;;4965482;28;20027;-75
2021/10/23 12:18:35;;;;;;;1.95;0.85;;;13.50;99.90;;;;;;4965752;28;20094;-76
2021/10/23 12:21:19;;;;;;;2.45;0.98;;;13.50;99.90;;;;;;4964500;28;20089;-76
2021/10/23 12:23:52;;;;;;;10.15;0.82;;;13.40;99.90;;;;;;4964288;28;20039;-78
2021/10/23 12:26:22;;;;;;;2.05;0.60;;;13.30;99.90;;;;;;4964285;28;20051;-78
2021/10/23 12:28:59;;;;;;;0.17;0.17;;;13.20;99.90;;;;;;4965063;28;20035;-77
2021/10/23 12:31:25;;;;;;;1.42;0.40;;;13.00;99.90;;;;;;4965707;28;20032;-78
2021/10/23 12:34:02;;;;;;;6.63;0.80;;;12.90;99.90;;;;;;4965577;28;20043;-76
2021/10/23 12:36:28;;;;;;;3.15;1.23;;;12.90;99.90;;;;;;4964769;28;20086;-74
2021/10/23 12:38:54;;;;;;;6.93;0.90;;;12.90;99.90;;;;;;4966202;28;20066;-82
2021/10/23 12:41:19;;;;;;;8.68;0.95;;;13.20;99.90;;;;;;4958245;28;20020;-75
2021/10/23 12:43:45;;;;;;;2.38;0.55;;;13.40;99.90;;;;;;4957403;29;20053;-77
2021/10/23 12:46:12;;;;;;;6.20;0.68;;;13.50;99.90;;;;;;4963326;28;20035;-79
2021/10/23 12:48:38;;;;;;;3.15;0.93;;;13.50;99.90;;;;;;4965417;28;20027;-76
2021/10/23 12:51:04;;;;;;;8.98;0.65;;;13.40;99.90;;;;;;4964175;28;20033;-76
2021/10/23 12:53:30;;;;;;;1.08;0.65;;;13.20;99.90;;;;;;4964029;28;20031;-77
2021/10/23 12:55:56;;;;;;;1.60;0.30;;;13.30;99.90;;;;;;4965745;28;20035;-76
2021/10/23 12:58:21;;;;;;;3.42;0.93;;;13.60;99.90;;;;;;4967957;28;20023;-74
2021/10/23 13:00:48;;;;;;;7.03;0.80;;;13.70;99.90;;;;;;4967531;28;20042;-76
2021/10/23 13:03:16;;;;;;;6.55;0.63;;;13.90;99.90;;;;;;4968900;28;20027;-80
2021/10/23 13:05:41;;;;;;;3.67;1.17;;;13.80;99.90;;;;;;4968857;28;20034;-76
2021/10/23 13:08:07;;;;;;;9.13;0.90;;;13.70;99.90;;;;;;4967267;28;20028;-79